Allison, Texas
Current Conditions -  °F | °C
As of 8:15 AM on Monday 22 Dec 2014 (Local Time) from KHHF Reporting Station
Scattered Clouds Scattered Clouds  
Wind Chill: 40°   Ceiling: Unl
Heat Index: 46°   Visibility: NA
Dew Point: 38°   Wind: 14mph
Humidity: 75%   Direction: 320°NW
Pressure: 29.68"   Gusts: 21mph
Location:  35.61°N, 100.1°W
Report Text: KHHF 221415Z AUTO 32012G18KT SCT090 SCT110 08/04 A2968 RMK AO2 T00770035 PWINO
Loading
Personal Weather Stations






























Interactive Weather Map New forecast layout! Learn more

10-Day Weather Forecast

Advertisements
Track Severe Weather on mobile